WZZ9PE EDFH-LQTZ
Flight info
| Callsign | WZZ9PE |
|---|---|
| Flight time | 1h 38m |
| Altitude | 35000 |
| Route | ULKIG2T ULKIG Z100 RUDUS L984 BOMBI DCT DETEV DCT DINKU DCT BESNI DCT GOMIG DCT BEDOX DCT MOSAV/N0364F190 N131 DER |
| Aircraft | A21N/M-SDE3FGHIRWY/LB1 |
Departure
| Time | 2026-04-23 10:55 |
|---|---|
| Airport | Frankfurt-Hahn Airport (EDFH) |
Arrival
| Time | 2026-04-23 12:34 |
|---|---|
| Airport | Tuzla International Airport (LQTZ) |
| Time | Latitude | Longitude | Altitude | Speed | Heading |
|---|---|---|---|---|---|
| 2026-04-23 10:17 | 49.94774 | 7.26938 | 1604 ft | 0 kts | 213° |
| 2026-04-23 10:44 | 49.94778 | 7.26942 | 1604 ft | 2 kts | 213° |
| 2026-04-23 10:44 | 49.94791 | 7.26955 | 1603 ft | 2 kts | 212° |
| 2026-04-23 10:45 | 49.94803 | 7.26969 | 1603 ft | 2 kts | 242° |
| 2026-04-23 10:45 | 49.94806 | 7.26992 | 1603 ft | 2 kts | 281° |
| 2026-04-23 10:45 | 49.94803 | 7.27005 | 1602 ft | 1 kts | 303° |
| 2026-04-23 10:45 | 49.94799 | 7.27013 | 1601 ft | 0 kts | 303° |
| 2026-04-23 10:47 | 49.94799 | 7.27014 | 1601 ft | 0 kts | 303° |
| 2026-04-23 10:48 | 49.94799 | 7.27013 | 1601 ft | 0 kts | 304° |
| 2026-04-23 10:48 | 49.94804 | 7.27000 | 1602 ft | 2 kts | 301° |
| 2026-04-23 10:48 | 49.94819 | 7.26964 | 1604 ft | 5 kts | 303° |
| 2026-04-23 10:48 | 49.94847 | 7.26912 | 1607 ft | 7 kts | 320° |
| 2026-04-23 10:49 | 49.94844 | 7.26861 | 1609 ft | 6 kts | 235° |
| 2026-04-23 10:49 | 49.94811 | 7.26815 | 1610 ft | 6 kts | 213° |
| 2026-04-23 10:49 | 49.94766 | 7.26769 | 1611 ft | 8 kts | 214° |
| 2026-04-23 10:49 | 49.94711 | 7.26714 | 1612 ft | 10 kts | 212° |
| 2026-04-23 10:50 | 49.94647 | 7.26652 | 1614 ft | 10 kts | 210° |
| 2026-04-23 10:50 | 49.94577 | 7.26646 | 1613 ft | 10 kts | 188° |
| 2026-04-23 10:50 | 49.94515 | 7.26593 | 1613 ft | 10 kts | 212° |
| 2026-04-23 10:50 | 49.94455 | 7.26531 | 1614 ft | 10 kts | 214° |
| 2026-04-23 10:51 | 49.94400 | 7.26473 | 1616 ft | 8 kts | 214° |
| 2026-04-23 10:51 | 49.94351 | 7.26424 | 1618 ft | 9 kts | 213° |
| 2026-04-23 10:51 | 49.94286 | 7.26357 | 1620 ft | 13 kts | 214° |
| 2026-04-23 10:51 | 49.94201 | 7.26270 | 1621 ft | 16 kts | 213° |
| 2026-04-23 10:52 | 49.94101 | 7.26166 | 1624 ft | 17 kts | 214° |
| 2026-04-23 10:52 | 49.94006 | 7.26067 | 1626 ft | 15 kts | 214° |
| 2026-04-23 10:52 | 49.93922 | 7.25981 | 1629 ft | 13 kts | 213° |
| 2026-04-23 10:52 | 49.93851 | 7.25910 | 1632 ft | 11 kts | 212° |
| 2026-04-23 10:53 | 49.93825 | 7.25828 | 1636 ft | 7 kts | 287° |
| 2026-04-23 10:53 | 49.93851 | 7.25756 | 1639 ft | 8 kts | 301° |
| 2026-04-23 10:53 | 49.93888 | 7.25663 | 1643 ft | 11 kts | 301° |
| 2026-04-23 10:53 | 49.93936 | 7.25546 | 1643 ft | 13 kts | 303° |
| 2026-04-23 10:54 | 49.93995 | 7.25529 | 1643 ft | 0 kts | 31° |
| 2026-04-23 10:54 | 49.94008 | 7.25542 | 1642 ft | 12 kts | 32° |
| 2026-04-23 10:54 | 49.94300 | 7.25830 | 1640 ft | 85 kts | 32° |
| 2026-04-23 10:54 | 49.94986 | 7.26507 | 1623 ft | 146 kts | 32° |
| 2026-04-23 10:55 | 49.95958 | 7.27470 | 1839 ft | 175 kts | 33° |
| 2026-04-23 10:55 | 49.96974 | 7.28488 | 2447 ft | 179 kts | 33° |
| 2026-04-23 10:55 | 49.98000 | 7.29538 | 3231 ft | 174 kts | 33° |
| 2026-04-23 10:55 | 49.98972 | 7.30540 | 3930 ft | 170 kts | 33° |
| 2026-04-23 10:56 | 49.99963 | 7.31510 | 4531 ft | 171 kts | 32° |
| 2026-04-23 10:56 | 50.00984 | 7.32489 | 5051 ft | 176 kts | 32° |
| 2026-04-23 10:56 | 50.02077 | 7.33468 | 5390 ft | 192 kts | 22° |
| 2026-04-23 10:56 | 50.03466 | 7.33680 | 5715 ft | 212 kts | 352° |
| 2026-04-23 10:57 | 50.04850 | 7.32666 | 5980 ft | 238 kts | 320° |
| 2026-04-23 10:57 | 50.05740 | 7.30407 | 6299 ft | 264 kts | 284° |
| 2026-04-23 10:57 | 50.05626 | 7.27504 | 6777 ft | 282 kts | 249° |
| 2026-04-23 10:57 | 50.04455 | 7.25043 | 7448 ft | 288 kts | 218° |
| 2026-04-23 10:58 | 50.02680 | 7.23647 | 8149 ft | 290 kts | 189° |
| 2026-04-23 10:58 | 50.00691 | 7.23682 | 8851 ft | 289 kts | 163° |
| 2026-04-23 10:58 | 49.98917 | 7.24993 | 9521 ft | 286 kts | 141° |
| 2026-04-23 10:58 | 49.97329 | 7.26883 | 10171 ft | 290 kts | 139° |
| 2026-04-23 10:59 | 49.95782 | 7.28873 | 10749 ft | 296 kts | 135° |
| 2026-04-23 10:59 | 49.94241 | 7.31102 | 11105 ft | 310 kts | 130° |
| 2026-04-23 10:59 | 49.92968 | 7.33864 | 11451 ft | 319 kts | 114° |
| 2026-04-23 10:59 | 49.92229 | 7.37087 | 12034 ft | 320 kts | 101° |
| 2026-04-23 11:00 | 49.91725 | 7.40454 | 12676 ft | 323 kts | 99° |
| 2026-04-23 11:00 | 49.91237 | 7.43863 | 13284 ft | 327 kts | 99° |
| 2026-04-23 11:00 | 49.90741 | 7.47269 | 13866 ft | 330 kts | 99° |
| 2026-04-23 11:00 | 49.90221 | 7.50742 | 14443 ft | 334 kts | 100° |
| 2026-04-23 11:01 | 49.89690 | 7.54245 | 15052 ft | 337 kts | 100° |
| 2026-04-23 11:01 | 49.89146 | 7.57785 | 15673 ft | 338 kts | 100° |
| 2026-04-23 11:01 | 49.88599 | 7.61331 | 16292 ft | 340 kts | 100° |
| 2026-04-23 11:01 | 49.88053 | 7.64865 | 16874 ft | 341 kts | 100° |
| 2026-04-23 11:02 | 49.87537 | 7.68469 | 17431 ft | 342 kts | 96° |
| 2026-04-23 11:02 | 49.87657 | 7.72090 | 17912 ft | 340 kts | 73° |
| 2026-04-23 11:02 | 49.88624 | 7.75361 | 18476 ft | 338 kts | 55° |
| 2026-04-23 11:02 | 49.90070 | 7.78281 | 19002 ft | 340 kts | 52° |
| 2026-04-23 11:03 | 49.91511 | 7.81136 | 19450 ft | 343 kts | 52° |
| 2026-04-23 11:03 | 49.92991 | 7.84086 | 19932 ft | 346 kts | 52° |
| 2026-04-23 11:03 | 49.94452 | 7.87007 | 20406 ft | 348 kts | 52° |
| 2026-04-23 11:03 | 49.95937 | 7.89992 | 20854 ft | 351 kts | 53° |
| 2026-04-23 11:04 | 49.97411 | 7.92967 | 21292 ft | 353 kts | 53° |
| 2026-04-23 11:04 | 49.98918 | 7.96013 | 21750 ft | 354 kts | 53° |
| 2026-04-23 11:04 | 50.00413 | 7.99036 | 22220 ft | 356 kts | 53° |
| 2026-04-23 11:04 | 50.01915 | 8.02075 | 22641 ft | 358 kts | 53° |
| 2026-04-23 11:05 | 50.03377 | 8.05221 | 23051 ft | 360 kts | 60° |
| 2026-04-23 11:05 | 50.04378 | 8.08788 | 23484 ft | 361 kts | 73° |
| 2026-04-23 11:05 | 50.04814 | 8.12581 | 23878 ft | 363 kts | 85° |
| 2026-04-23 11:05 | 50.04893 | 8.16542 | 24292 ft | 365 kts | 88° |
| 2026-04-23 11:06 | 50.04966 | 8.24426 | 25075 ft | 369 kts | 88° |
| 2026-04-23 11:06 | 50.05004 | 8.28414 | 25440 ft | 371 kts | 88° |
| 2026-04-23 11:06 | 50.05045 | 8.32439 | 25826 ft | 372 kts | 88° |
| 2026-04-23 11:07 | 50.05090 | 8.36463 | 26233 ft | 373 kts | 88° |
| 2026-04-23 11:07 | 50.05132 | 8.40452 | 26609 ft | 374 kts | 88° |
| 2026-04-23 11:07 | 50.05175 | 8.44514 | 26967 ft | 376 kts | 88° |
| 2026-04-23 11:07 | 50.05214 | 8.48555 | 27308 ft | 377 kts | 88° |
| 2026-04-23 11:08 | 50.05254 | 8.52620 | 27631 ft | 379 kts | 88° |
| 2026-04-23 11:08 | 50.05294 | 8.56743 | 27967 ft | 380 kts | 88° |
| 2026-04-23 11:08 | 50.05334 | 8.60903 | 28314 ft | 381 kts | 88° |
| 2026-04-23 11:08 | 50.05375 | 8.65020 | 28653 ft | 382 kts | 88° |
| 2026-04-23 11:09 | 50.05444 | 8.69140 | 28971 ft | 383 kts | 88° |
| 2026-04-23 11:09 | 50.05508 | 8.73295 | 29292 ft | 385 kts | 90° |
| 2026-04-23 11:09 | 50.05302 | 8.77435 | 29585 ft | 388 kts | 96° |
| 2026-04-23 11:09 | 50.04750 | 8.81550 | 29890 ft | 391 kts | 103° |
| 2026-04-23 11:10 | 50.03868 | 8.85536 | 30179 ft | 395 kts | 110° |
| 2026-04-23 11:10 | 50.02716 | 8.89431 | 30469 ft | 397 kts | 112° |
| 2026-04-23 11:10 | 50.01526 | 8.93277 | 30734 ft | 399 kts | 112° |
| 2026-04-23 11:10 | 50.00304 | 8.97193 | 31025 ft | 400 kts | 112° |
| 2026-04-23 11:11 | 49.99105 | 9.01026 | 31289 ft | 401 kts | 112° |
| 2026-04-23 11:11 | 49.97886 | 9.04922 | 31555 ft | 403 kts | 112° |
| 2026-04-23 11:11 | 49.96664 | 9.08826 | 31823 ft | 404 kts | 112° |
| 2026-04-23 11:11 | 49.95436 | 9.12746 | 32052 ft | 405 kts | 112° |
| 2026-04-23 11:12 | 49.94202 | 9.16683 | 32288 ft | 407 kts | 112° |
| 2026-04-23 11:12 | 49.92965 | 9.20623 | 32536 ft | 408 kts | 112° |
| 2026-04-23 11:12 | 49.91719 | 9.24588 | 32801 ft | 408 kts | 112° |
| 2026-04-23 11:12 | 49.90492 | 9.28485 | 33119 ft | 407 kts | 112° |
| 2026-04-23 11:13 | 49.89255 | 9.32401 | 33447 ft | 406 kts | 112° |
| 2026-04-23 11:13 | 49.88015 | 9.36320 | 33746 ft | 405 kts | 112° |
| 2026-04-23 11:13 | 49.86770 | 9.40249 | 34004 ft | 405 kts | 112° |
| 2026-04-23 11:13 | 49.85490 | 9.44106 | 34230 ft | 407 kts | 115° |
| 2026-04-23 11:14 | 49.84054 | 9.47894 | 34444 ft | 410 kts | 117° |
| 2026-04-23 11:14 | 49.82490 | 9.51550 | 34676 ft | 412 kts | 120° |
| 2026-04-23 11:14 | 49.80787 | 9.55099 | 34898 ft | 414 kts | 123° |
| 2026-04-23 11:14 | 49.78941 | 9.58525 | 35119 ft | 417 kts | 126° |
| 2026-04-23 11:15 | 49.76963 | 9.61806 | 35289 ft | 421 kts | 129° |
| 2026-04-23 11:15 | 49.72698 | 9.68078 | 35336 ft | 424 kts | 132° |
| 2026-04-23 11:16 | 49.68403 | 9.74306 | 35352 ft | 424 kts | 132° |
| 2026-04-23 11:16 | 49.64084 | 9.80549 | 35371 ft | 425 kts | 132° |
| 2026-04-23 11:17 | 49.59760 | 9.86778 | 35362 ft | 425 kts | 132° |
| 2026-04-23 11:17 | 49.55465 | 9.92950 | 35364 ft | 425 kts | 132° |
| 2026-04-23 11:18 | 49.51125 | 9.99169 | 35371 ft | 426 kts | 131° |
| 2026-04-23 11:18 | 49.46817 | 10.05330 | 35379 ft | 426 kts | 132° |
| 2026-04-23 11:19 | 49.42496 | 10.11494 | 35378 ft | 426 kts | 131° |
| 2026-04-23 11:19 | 49.38144 | 10.17690 | 35381 ft | 425 kts | 132° |
| 2026-04-23 11:20 | 49.33821 | 10.23822 | 35376 ft | 426 kts | 131° |
| 2026-04-23 11:20 | 49.29485 | 10.29967 | 35371 ft | 426 kts | 131° |
| 2026-04-23 11:21 | 49.25130 | 10.36117 | 35372 ft | 427 kts | 131° |
| 2026-04-23 11:21 | 49.20852 | 10.42291 | 35324 ft | 426 kts | 130° |
| 2026-04-23 11:22 | 49.16629 | 10.48593 | 35325 ft | 426 kts | 130° |
| 2026-04-23 11:22 | 49.12386 | 10.54912 | 35323 ft | 427 kts | 130° |
| 2026-04-23 11:23 | 49.08127 | 10.61219 | 35316 ft | 427 kts | 129° |
| 2026-04-23 11:23 | 49.03844 | 10.67544 | 35320 ft | 429 kts | 130° |
| 2026-04-23 11:24 | 48.99591 | 10.73811 | 35296 ft | 429 kts | 130° |
| 2026-04-23 11:24 | 48.95307 | 10.80106 | 35315 ft | 428 kts | 130° |
| 2026-04-23 11:25 | 48.91020 | 10.86389 | 35314 ft | 429 kts | 130° |
| 2026-04-23 11:25 | 48.86724 | 10.92671 | 35334 ft | 430 kts | 130° |
| 2026-04-23 11:26 | 48.82421 | 10.98945 | 35344 ft | 431 kts | 130° |
| 2026-04-23 11:26 | 48.78103 | 11.05235 | 35361 ft | 431 kts | 130° |
| 2026-04-23 11:27 | 48.73780 | 11.11510 | 35365 ft | 431 kts | 130° |
| 2026-04-23 11:27 | 48.69492 | 11.17803 | 35350 ft | 430 kts | 128° |
| 2026-04-23 11:28 | 48.65580 | 11.24582 | 35355 ft | 424 kts | 122° |
| 2026-04-23 11:28 | 48.62236 | 11.31808 | 35361 ft | 422 kts | 116° |
| 2026-04-23 11:29 | 48.59408 | 11.39507 | 35362 ft | 418 kts | 111° |
| 2026-04-23 11:29 | 48.56728 | 11.47333 | 35362 ft | 419 kts | 111° |
| 2026-04-23 11:30 | 48.54055 | 11.55118 | 35364 ft | 419 kts | 111° |
| 2026-04-23 11:30 | 48.51390 | 11.62855 | 35355 ft | 419 kts | 111° |
| 2026-04-23 11:31 | 48.48698 | 11.70648 | 35349 ft | 419 kts | 112° |
| 2026-04-23 11:31 | 48.46012 | 11.78402 | 35344 ft | 421 kts | 112° |
| 2026-04-23 11:32 | 48.43321 | 11.86150 | 35342 ft | 420 kts | 112° |
| 2026-04-23 11:32 | 48.40608 | 11.93933 | 35342 ft | 421 kts | 112° |
| 2026-04-23 11:33 | 48.37891 | 12.01703 | 35325 ft | 421 kts | 112° |
| 2026-04-23 11:33 | 48.35163 | 12.09486 | 35305 ft | 422 kts | 111° |
| 2026-04-23 11:34 | 48.32445 | 12.17219 | 35294 ft | 423 kts | 112° |
| 2026-04-23 11:34 | 48.29689 | 12.25028 | 35287 ft | 423 kts | 112° |
| 2026-04-23 11:35 | 48.26933 | 12.32822 | 35286 ft | 423 kts | 112° |
| 2026-04-23 11:35 | 48.24170 | 12.40611 | 35284 ft | 424 kts | 111° |
| 2026-04-23 11:36 | 48.21416 | 12.48362 | 35286 ft | 424 kts | 111° |
| 2026-04-23 11:36 | 48.18646 | 12.56130 | 35285 ft | 425 kts | 111° |
| 2026-04-23 11:37 | 48.15831 | 12.63917 | 35282 ft | 426 kts | 113° |
| 2026-04-23 11:37 | 48.12584 | 12.71373 | 35282 ft | 433 kts | 120° |
| 2026-04-23 11:38 | 48.08775 | 12.78419 | 35285 ft | 437 kts | 123° |
| 2026-04-23 11:38 | 48.04866 | 12.85311 | 35284 ft | 437 kts | 123° |
| 2026-04-23 11:39 | 48.00928 | 12.92244 | 35296 ft | 437 kts | 123° |
| 2026-04-23 11:39 | 47.96998 | 12.99143 | 35297 ft | 437 kts | 123° |
| 2026-04-23 11:40 | 47.93067 | 13.06029 | 35288 ft | 437 kts | 123° |
| 2026-04-23 11:40 | 47.89137 | 13.12896 | 35312 ft | 437 kts | 123° |
| 2026-04-23 11:41 | 47.85177 | 13.19796 | 35318 ft | 439 kts | 123° |
| 2026-04-23 11:41 | 47.81219 | 13.26676 | 35299 ft | 440 kts | 123° |
| 2026-04-23 11:42 | 47.77256 | 13.33548 | 35266 ft | 440 kts | 123° |
| 2026-04-23 11:42 | 47.73286 | 13.40413 | 35268 ft | 440 kts | 123° |
| 2026-04-23 11:43 | 47.69298 | 13.47292 | 35260 ft | 440 kts | 123° |
| 2026-04-23 11:43 | 47.65300 | 13.54170 | 35257 ft | 441 kts | 123° |
| 2026-04-23 11:44 | 47.61294 | 13.61045 | 35245 ft | 441 kts | 123° |
| 2026-04-23 11:44 | 47.57304 | 13.67876 | 35240 ft | 442 kts | 124° |
| 2026-04-23 11:45 | 47.53276 | 13.74751 | 35222 ft | 443 kts | 124° |
| 2026-04-23 11:45 | 47.49244 | 13.81619 | 35213 ft | 444 kts | 124° |
| 2026-04-23 11:46 | 47.45204 | 13.88485 | 35215 ft | 444 kts | 124° |
| 2026-04-23 11:46 | 47.41178 | 13.95305 | 35214 ft | 444 kts | 124° |
| 2026-04-23 11:47 | 47.37123 | 14.02156 | 35210 ft | 444 kts | 124° |
| 2026-04-23 11:47 | 47.33054 | 14.09018 | 35195 ft | 445 kts | 124° |
| 2026-04-23 11:48 | 47.28970 | 14.15883 | 35191 ft | 445 kts | 124° |
| 2026-04-23 11:48 | 47.24903 | 14.22705 | 35200 ft | 447 kts | 124° |
| 2026-04-23 11:49 | 47.20810 | 14.29554 | 35219 ft | 446 kts | 124° |
| 2026-04-23 11:49 | 47.16714 | 14.36387 | 35226 ft | 447 kts | 124° |
| 2026-04-23 11:50 | 47.12629 | 14.43186 | 35223 ft | 446 kts | 124° |
| 2026-04-23 11:50 | 47.08525 | 14.50001 | 35225 ft | 447 kts | 124° |
| 2026-04-23 11:51 | 47.04386 | 14.56858 | 35218 ft | 448 kts | 125° |
| 2026-04-23 11:51 | 47.00268 | 14.63660 | 35219 ft | 447 kts | 125° |
| 2026-04-23 11:52 | 46.96132 | 14.70471 | 35224 ft | 448 kts | 126° |
| 2026-04-23 11:52 | 46.92022 | 14.77230 | 35225 ft | 449 kts | 126° |
| 2026-04-23 11:53 | 46.87860 | 14.84057 | 35211 ft | 448 kts | 126° |
| 2026-04-23 11:53 | 46.83720 | 14.90825 | 35195 ft | 449 kts | 126° |
| 2026-04-23 11:54 | 46.79584 | 14.97571 | 35196 ft | 449 kts | 126° |
| 2026-04-23 11:54 | 46.75412 | 15.04359 | 35191 ft | 448 kts | 126° |
| 2026-04-23 11:55 | 46.71269 | 15.11083 | 35202 ft | 448 kts | 126° |
| 2026-04-23 11:55 | 46.67123 | 15.17799 | 35179 ft | 448 kts | 126° |
| 2026-04-23 11:56 | 46.62968 | 15.24514 | 35193 ft | 448 kts | 126° |
| 2026-04-23 11:56 | 46.58809 | 15.31211 | 35185 ft | 449 kts | 126° |
| 2026-04-23 11:57 | 46.54600 | 15.37979 | 35212 ft | 449 kts | 126° |
| 2026-04-23 11:57 | 46.50425 | 15.44674 | 35089 ft | 448 kts | 126° |
| 2026-04-23 11:57 | 46.48352 | 15.47992 | 35206 ft | 448 kts | 126° |
| 2026-04-23 11:58 | 46.46265 | 15.51329 | 35130 ft | 448 kts | 126° |
| 2026-04-23 11:58 | 46.44155 | 15.54695 | 35240 ft | 448 kts | 126° |
| 2026-04-23 11:58 | 46.42084 | 15.57998 | 35146 ft | 447 kts | 126° |
| 2026-04-23 11:59 | 46.37922 | 15.64630 | 35173 ft | 447 kts | 126° |
| 2026-04-23 11:59 | 46.33720 | 15.71304 | 35187 ft | 448 kts | 127° |
| 2026-04-23 12:00 | 46.29532 | 15.77942 | 35189 ft | 450 kts | 127° |
| 2026-04-23 12:00 | 46.25322 | 15.84599 | 35193 ft | 447 kts | 127° |
| 2026-04-23 12:01 | 46.21144 | 15.91243 | 35189 ft | 448 kts | 127° |
| 2026-04-23 12:01 | 46.16942 | 15.97918 | 35191 ft | 447 kts | 127° |
| 2026-04-23 12:02 | 46.12781 | 16.04513 | 35184 ft | 447 kts | 127° |
| 2026-04-23 12:02 | 46.08579 | 16.11160 | 35184 ft | 448 kts | 127° |
| 2026-04-23 12:03 | 46.04406 | 16.17743 | 35186 ft | 447 kts | 127° |
| 2026-04-23 12:03 | 46.00202 | 16.24358 | 35187 ft | 447 kts | 127° |
| 2026-04-23 12:04 | 45.96017 | 16.30928 | 35191 ft | 447 kts | 127° |
| 2026-04-23 12:04 | 45.91848 | 16.37458 | 35182 ft | 447 kts | 127° |
| 2026-04-23 12:05 | 45.87642 | 16.44031 | 35191 ft | 446 kts | 127° |
| 2026-04-23 12:05 | 45.83442 | 16.50580 | 35184 ft | 446 kts | 127° |
| 2026-04-23 12:06 | 45.79271 | 16.57066 | 35177 ft | 446 kts | 127° |
| 2026-04-23 12:06 | 45.72968 | 16.66842 | 35170 ft | 446 kts | 128° |
| 2026-04-23 12:07 | 45.68765 | 16.73343 | 35180 ft | 447 kts | 128° |
| 2026-04-23 12:07 | 45.64550 | 16.79849 | 35175 ft | 447 kts | 128° |
| 2026-04-23 12:08 | 45.60329 | 16.86349 | 35179 ft | 447 kts | 128° |
| 2026-04-23 12:08 | 45.56152 | 16.92834 | 34921 ft | 445 kts | 126° |
| 2026-04-23 12:09 | 45.54189 | 16.96248 | 34693 ft | 441 kts | 122° |
| 2026-04-23 12:09 | 45.52308 | 16.99683 | 34439 ft | 439 kts | 122° |
| 2026-04-23 12:09 | 45.50452 | 17.03080 | 34174 ft | 437 kts | 122° |
| 2026-04-23 12:09 | 45.48591 | 17.06490 | 33712 ft | 435 kts | 122° |
| 2026-04-23 12:10 | 45.46751 | 17.09858 | 33167 ft | 435 kts | 122° |
| 2026-04-23 12:10 | 45.44898 | 17.13246 | 32528 ft | 437 kts | 122° |
| 2026-04-23 12:10 | 45.43025 | 17.16665 | 31918 ft | 437 kts | 123° |
| 2026-04-23 12:10 | 45.41192 | 17.20004 | 31481 ft | 433 kts | 122° |
| 2026-04-23 12:11 | 45.39337 | 17.23374 | 31013 ft | 429 kts | 122° |
| 2026-04-23 12:11 | 45.37524 | 17.26667 | 30545 ft | 426 kts | 122° |
| 2026-04-23 12:11 | 45.35702 | 17.29978 | 30041 ft | 423 kts | 122° |
| 2026-04-23 12:11 | 45.33911 | 17.33223 | 29577 ft | 418 kts | 122° |
| 2026-04-23 12:12 | 45.32129 | 17.36448 | 29119 ft | 414 kts | 122° |
| 2026-04-23 12:12 | 45.30363 | 17.39644 | 28660 ft | 411 kts | 122° |
| 2026-04-23 12:12 | 45.28597 | 17.42836 | 28202 ft | 407 kts | 122° |
| 2026-04-23 12:12 | 45.26876 | 17.45945 | 27756 ft | 403 kts | 122° |
| 2026-04-23 12:13 | 45.25145 | 17.49068 | 27310 ft | 400 kts | 122° |
| 2026-04-23 12:13 | 45.23452 | 17.52118 | 26877 ft | 396 kts | 122° |
| 2026-04-23 12:13 | 45.21753 | 17.55177 | 26439 ft | 393 kts | 122° |
| 2026-04-23 12:13 | 45.20087 | 17.58173 | 26007 ft | 390 kts | 122° |
| 2026-04-23 12:14 | 45.18421 | 17.61165 | 25575 ft | 387 kts | 122° |
| 2026-04-23 12:14 | 45.16757 | 17.64153 | 25138 ft | 384 kts | 122° |
| 2026-04-23 12:14 | 45.15109 | 17.67109 | 24695 ft | 381 kts | 123° |
| 2026-04-23 12:14 | 45.13486 | 17.70014 | 24252 ft | 379 kts | 122° |
| 2026-04-23 12:15 | 45.11853 | 17.72934 | 23823 ft | 376 kts | 122° |
| 2026-04-23 12:15 | 45.10239 | 17.75823 | 23407 ft | 373 kts | 122° |
| 2026-04-23 12:15 | 45.08661 | 17.78645 | 22994 ft | 370 kts | 122° |
| 2026-04-23 12:15 | 45.07065 | 17.81493 | 22562 ft | 368 kts | 122° |
| 2026-04-23 12:16 | 45.05487 | 17.84305 | 22138 ft | 366 kts | 122° |
| 2026-04-23 12:16 | 45.03919 | 17.87095 | 21717 ft | 363 kts | 122° |
| 2026-04-23 12:16 | 45.02343 | 17.89901 | 21284 ft | 361 kts | 122° |
| 2026-04-23 12:16 | 45.00800 | 17.92643 | 20863 ft | 359 kts | 122° |
| 2026-04-23 12:17 | 44.99255 | 17.95389 | 20453 ft | 357 kts | 122° |
| 2026-04-23 12:17 | 44.97767 | 17.98205 | 20030 ft | 352 kts | 118° |
| 2026-04-23 12:17 | 44.96404 | 18.00999 | 19618 ft | 350 kts | 118° |
| 2026-04-23 12:17 | 44.95021 | 18.03848 | 19195 ft | 348 kts | 118° |
| 2026-04-23 12:18 | 44.93675 | 18.06621 | 18786 ft | 346 kts | 118° |
| 2026-04-23 12:18 | 44.92314 | 18.09418 | 18382 ft | 344 kts | 118° |
| 2026-04-23 12:18 | 44.90968 | 18.12181 | 17982 ft | 343 kts | 118° |
| 2026-04-23 12:18 | 44.89627 | 18.14927 | 17584 ft | 341 kts | 118° |
| 2026-04-23 12:19 | 44.88271 | 18.17698 | 17169 ft | 339 kts | 118° |
| 2026-04-23 12:19 | 44.86957 | 18.20384 | 16764 ft | 338 kts | 118° |
| 2026-04-23 12:19 | 44.85629 | 18.23098 | 16348 ft | 337 kts | 118° |
| 2026-04-23 12:19 | 44.84302 | 18.25808 | 15931 ft | 335 kts | 118° |
| 2026-04-23 12:20 | 44.82982 | 18.28503 | 15504 ft | 334 kts | 118° |
| 2026-04-23 12:20 | 44.81658 | 18.31203 | 15084 ft | 333 kts | 118° |
| 2026-04-23 12:20 | 44.80345 | 18.33876 | 14663 ft | 332 kts | 118° |
| 2026-04-23 12:20 | 44.79042 | 18.36530 | 14262 ft | 331 kts | 119° |
| 2026-04-23 12:21 | 44.77752 | 18.39153 | 13840 ft | 330 kts | 119° |
| 2026-04-23 12:21 | 44.76441 | 18.41812 | 13412 ft | 329 kts | 119° |
| 2026-04-23 12:21 | 44.75148 | 18.44434 | 13015 ft | 328 kts | 120° |
| 2026-04-23 12:21 | 44.73846 | 18.47068 | 12550 ft | 328 kts | 120° |
| 2026-04-23 12:22 | 44.72542 | 18.49708 | 12081 ft | 328 kts | 120° |
| 2026-04-23 12:22 | 44.71250 | 18.52320 | 11647 ft | 327 kts | 120° |
| 2026-04-23 12:22 | 44.69961 | 18.54922 | 11238 ft | 325 kts | 120° |
| 2026-04-23 12:22 | 44.68686 | 18.57493 | 11037 ft | 316 kts | 120° |
| 2026-04-23 12:23 | 44.67447 | 18.59984 | 10884 ft | 304 kts | 120° |
| 2026-04-23 12:23 | 44.66265 | 18.62364 | 10763 ft | 292 kts | 120° |
| 2026-04-23 12:23 | 44.65128 | 18.64650 | 10648 ft | 280 kts | 120° |
| 2026-04-23 12:23 | 44.64044 | 18.66832 | 10536 ft | 269 kts | 120° |
| 2026-04-23 12:24 | 44.63132 | 18.69045 | 10403 ft | 258 kts | 106° |
| 2026-04-23 12:24 | 44.62670 | 18.71472 | 10095 ft | 254 kts | 95° |
| 2026-04-23 12:24 | 44.62398 | 18.73879 | 9774 ft | 252 kts | 94° |
| 2026-04-23 12:24 | 44.62144 | 18.76295 | 9457 ft | 251 kts | 94° |
| 2026-04-23 12:25 | 44.61883 | 18.78718 | 9143 ft | 251 kts | 94° |
| 2026-04-23 12:25 | 44.61615 | 18.81116 | 8834 ft | 251 kts | 94° |
| 2026-04-23 12:25 | 44.61337 | 18.83531 | 8521 ft | 250 kts | 94° |
| 2026-04-23 12:25 | 44.61056 | 18.85940 | 8208 ft | 250 kts | 94° |
| 2026-04-23 12:26 | 44.60776 | 18.88337 | 7906 ft | 250 kts | 95° |
| 2026-04-23 12:26 | 44.60494 | 18.90741 | 7589 ft | 249 kts | 95° |
| 2026-04-23 12:26 | 44.60216 | 18.93099 | 7291 ft | 248 kts | 95° |
| 2026-04-23 12:26 | 44.59935 | 18.95474 | 6989 ft | 248 kts | 95° |
| 2026-04-23 12:27 | 44.59502 | 18.97852 | 6641 ft | 254 kts | 115° |
| 2026-04-23 12:27 | 44.58276 | 18.99583 | 6314 ft | 258 kts | 153° |
| 2026-04-23 12:27 | 44.56575 | 19.00415 | 6047 ft | 258 kts | 164° |
| 2026-04-23 12:27 | 44.54854 | 19.01049 | 5758 ft | 258 kts | 165° |
| 2026-04-23 12:28 | 44.53129 | 19.01716 | 5470 ft | 257 kts | 163° |
| 2026-04-23 12:28 | 44.51362 | 19.02151 | 5160 ft | 256 kts | 180° |
| 2026-04-23 12:28 | 44.49617 | 19.01983 | 4877 ft | 253 kts | 188° |
| 2026-04-23 12:28 | 44.47867 | 19.01666 | 4589 ft | 251 kts | 189° |
| 2026-04-23 12:29 | 44.46154 | 19.01334 | 4296 ft | 248 kts | 193° |
| 2026-04-23 12:29 | 44.44621 | 19.00325 | 3943 ft | 241 kts | 226° |
| 2026-04-23 12:29 | 44.43751 | 18.98466 | 3698 ft | 227 kts | 259° |
| 2026-04-23 12:29 | 44.43724 | 18.96383 | 3648 ft | 203 kts | 284° |
| 2026-04-23 12:30 | 44.44001 | 18.94586 | 3609 ft | 184 kts | 287° |
| 2026-04-23 12:30 | 44.44242 | 18.92877 | 3420 ft | 175 kts | 285° |
| 2026-04-23 12:30 | 44.44442 | 18.91213 | 3145 ft | 170 kts | 283° |
| 2026-04-23 12:30 | 44.44583 | 18.89615 | 2922 ft | 164 kts | 281° |
| 2026-04-23 12:31 | 44.44659 | 18.88017 | 2737 ft | 162 kts | 278° |
| 2026-04-23 12:31 | 44.44734 | 18.86439 | 2543 ft | 164 kts | 280° |
| 2026-04-23 12:31 | 44.44863 | 18.84884 | 2358 ft | 159 kts | 281° |
| 2026-04-23 12:31 | 44.45014 | 18.83435 | 2125 ft | 148 kts | 283° |
| 2026-04-23 12:32 | 44.45140 | 18.82010 | 1889 ft | 145 kts | 283° |
| 2026-04-23 12:32 | 44.45235 | 18.80600 | 1715 ft | 145 kts | 279° |
| 2026-04-23 12:32 | 44.45331 | 18.79207 | 1538 ft | 146 kts | 283° |
| 2026-04-23 12:32 | 44.45447 | 18.77793 | 1361 ft | 146 kts | 284° |
| 2026-04-23 12:33 | 44.45565 | 18.76392 | 1184 ft | 143 kts | 277° |
| 2026-04-23 12:33 | 44.45663 | 18.75015 | 957 ft | 141 kts | 278° |
| 2026-04-23 12:33 | 44.45771 | 18.73667 | 784 ft | 138 kts | 283° |
| 2026-04-23 12:33 | 44.45862 | 18.72544 | 782 ft | 90 kts | 277° |
| 2026-04-23 12:34 | 44.45912 | 18.71911 | 775 ft | 41 kts | 276° |
| 2026-04-23 12:34 | 44.45946 | 18.71546 | 772 ft | 36 kts | 284° |
| 2026-04-23 12:34 | 44.45969 | 18.71217 | 768 ft | 31 kts | 275° |
| 2026-04-23 12:34 | 44.45990 | 18.70991 | 763 ft | 18 kts | 297° |
| 2026-04-23 12:35 | 44.46093 | 18.70923 | 764 ft | 16 kts | 7° |
| 2026-04-23 12:35 | 44.46201 | 18.70947 | 766 ft | 14 kts | 12° |
| 2026-04-23 12:35 | 44.46258 | 18.71028 | 770 ft | 10 kts | 79° |
| 2026-04-23 12:35 | 44.46302 | 18.71082 | 773 ft | 7 kts | 17° |
| 2026-04-23 12:36 | 44.46321 | 18.71069 | 773 ft | 0 kts | 294° |